Magnate — H9ZN — position and weather

sailwx.info

Track history (hours):
 
Tides and Currents Weather Stations Pressure Air Temp Water Temp Dewpoint Dewpoint Depression Visibility Wind Speed Wind Dir Waves Ship Positions

Magnate

Last reported at 2016-Jun-25 05:33 UTC. Time now 2016-Jun-26 10:15 UTC.
Position N 41°10' W 072°35'.

Length 140 m; draft 7.7 m.

Type: Cargo ship. MMSI: 357055000.

Date/timePositionNaut miles runAvg speedWind from/ knotsBaromVisibWave heightAir tempDewpointWater temp
2016-Jun-25 05:33N 41°10' W 072°35'1313.4
2016-Jun-25 04:33N 41°12' W 072°18'3612.1
2016-Jun-25 01:33N 41°16' W 071°30'  
2016-Jun-17 14:26N 39°59' W 031°10'6111.9
2016-Jun-17 09:20N 39°60' W 029°50'912.2
2016-Jun-17 08:33N 39°58' W 029°38'1211.8
2016-Jun-17 07:33N 39°56' W 029°23'1211.8
2016-Jun-17 06:34N 39°54' W 029°08'1212.2
2016-Jun-17 05:33N 39°51' W 028°52'1212.2
2016-Jun-17 04:32N 39°49' W 028°36'1211.9
2016-Jun-17 03:33N 39°47' W 028°21'1312.0
2016-Jun-17 02:26N 39°45' W 028°04'1512.3
2016-Jun-17 01:12N 39°42' W 027°44'912.2
2016-Jun-17 00:27N 39°40' W 027°33'9912.2
2016-Jun-16 16:24N 39°23' W 025°27'1611.9
2016-Jun-16 15:05N 39°20' W 025°07'4411.7
2016-Jun-16 11:21N 39°13' W 024°12'1111.8
2016-Jun-16 10:25N 39°11' W 023°58'1011.8
2016-Jun-16 09:32N 39°09' W 023°45'1111.6
2016-Jun-16 08:33N 39°07' W 023°30'  
Track history (hours):
 
Tides and Currents Weather Stations Pressure Air Temp Water Temp Dewpoint Dewpoint Depression Visibility Wind Speed Wind Dir Waves Ship Positions

Magnate

Last reported at 2016-Jun-25 05:33 UTC. Time now 2016-Jun-26 10:15 UTC.
Position N 41°10' W 072°35'.

Length 140 m; draft 7.7 m.

Type: Cargo ship. MMSI: 357055000.

Date/timePositionNaut miles runAvg speedWind from/ knotsBaromVisibWave heightAir tempDewpointWater temp
2016-Jun-25 05:33N 41°10' W 072°35'1313.4
2016-Jun-25 04:33N 41°12' W 072°18'3612.1
2016-Jun-25 01:33N 41°16' W 071°30'  
2016-Jun-17 14:26N 39°59' W 031°10'6111.9
2016-Jun-17 09:20N 39°60' W 029°50'912.2
2016-Jun-17 08:33N 39°58' W 029°38'1211.8
2016-Jun-17 07:33N 39°56' W 029°23'1211.8
2016-Jun-17 06:34N 39°54' W 029°08'1212.2
2016-Jun-17 05:33N 39°51' W 028°52'1212.2
2016-Jun-17 04:32N 39°49' W 028°36'1211.9
2016-Jun-17 03:33N 39°47' W 028°21'1312.0
2016-Jun-17 02:26N 39°45' W 028°04'1512.3
2016-Jun-17 01:12N 39°42' W 027°44'912.2
2016-Jun-17 00:27N 39°40' W 027°33'9912.2
2016-Jun-16 16:24N 39°23' W 025°27'1611.9
2016-Jun-16 15:05N 39°20' W 025°07'4411.7
2016-Jun-16 11:21N 39°13' W 024°12'1111.8
2016-Jun-16 10:25N 39°11' W 023°58'1011.8
2016-Jun-16 09:32N 39°09' W 023°45'1111.6
2016-Jun-16 08:33N 39°07' W 023°30'  

Dump ship's entire track history